Time;durP1;ratioP1;P1;durP2;ratioP2;P2;SDS_P1;SDS_P2;PMS_P1;PMS_P2;Temp;Humidity;BMP_temperature;BMP_pressure;BME280_temperature;BME280_humidity;BME280_pressure;Samples;Min_cycle;Max_cycle;Signal;HPM_P1;HPM_P2
2023/12/11 00:01:34;;;;;;;5.80;0.80;;;9.20;99.90;;;;;;5043398;28;20820;-69
2023/12/11 00:04:02;;;;;;;6.90;0.80;;;9.10;99.90;;;;;;5043008;28;20458;-70
2023/12/11 00:06:30;;;;;;;6.23;0.57;;;9.10;99.90;;;;;;5042572;28;20468;-69
2023/12/11 00:08:58;;;;;;;5.90;0.60;;;9.00;99.90;;;;;;5043842;28;20467;-70
2023/12/11 00:11:26;;;;;;;8.00;0.60;;;8.90;99.90;;;;;;5032775;28;21227;-71
2023/12/11 00:13:54;;;;;;;6.20;0.70;;;9.00;99.90;;;;;;5034547;28;20559;-73
2023/12/11 00:16:23;;;;;;;7.37;0.93;;;9.10;99.90;;;;;;5042750;28;20452;-71
2023/12/11 00:18:53;;;;;;;6.80;0.80;;;9.10;99.90;;;;;;5048591;28;20848;-70
2023/12/11 00:21:21;;;;;;;5.80;0.67;;;9.10;99.90;;;;;;5044622;28;20482;-70
2023/12/11 00:23:49;;;;;;;6.30;0.80;;;9.10;99.90;;;;;;5048941;28;20546;-70
2023/12/11 00:26:17;;;;;;;5.53;0.50;;;9.10;99.90;;;;;;5040745;28;20958;-70
2023/12/11 00:28:47;;;;;;;5.80;0.60;;;9.00;99.90;;;;;;5039004;28;20442;-71
2023/12/11 00:31:15;;;;;;;6.43;0.60;;;8.90;99.90;;;;;;5042868;28;20457;-71
2023/12/11 00:33:43;;;;;;;6.20;0.57;;;8.90;99.90;;;;;;5041101;28;21231;-69
2023/12/11 00:36:13;;;;;;;5.87;0.63;;;9.00;99.90;;;;;;5045274;28;20437;-69
2023/12/11 00:38:41;;;;;;;6.93;0.60;;;9.00;99.90;;;;;;5046785;28;20834;-71
2023/12/11 00:41:09;;;;;;;7.60;0.70;;;9.10;99.90;;;;;;5047119;28;20463;-69
2023/12/11 00:43:37;;;;;;;5.90;0.63;;;9.20;99.90;;;;;;5046757;28;20471;-70
2023/12/11 00:46:13;;;;;;;6.90;0.67;;;9.20;99.90;;;;;;5045329;28;20456;-71
2023/12/11 00:48:41;;;;;;;6.90;0.80;;;9.20;99.90;;;;;;5048271;28;20482;-71
2023/12/11 00:51:17;;;;;;;6.67;1.00;;;9.20;99.90;;;;;;5043225;28;20505;-71
2023/12/11 00:53:45;;;;;;;5.60;0.40;;;9.30;99.90;;;;;;5047843;28;20568;-70
2023/12/11 00:56:13;;;;;;;6.30;0.70;;;9.40;99.90;;;;;;5047567;28;20530;-70
2023/12/11 00:58:41;;;;;;;6.17;0.60;;;9.40;99.90;;;;;;5048131;28;20466;-71
2023/12/11 01:01:09;;;;;;;9.23;0.70;;;9.50;99.90;;;;;;5047313;28;20458;-70
2023/12/11 01:03:38;;;;;;;6.87;0.77;;;9.50;99.90;;;;;;5047029;28;20868;-71
2023/12/11 01:06:07;;;;;;;6.20;0.50;;;9.40;99.90;;;;;;5043898;28;21110;-70
2023/12/11 01:08:38;;;;;;;6.30;0.73;;;9.40;99.90;;;;;;5047067;28;20484;-71
2023/12/11 01:11:08;;;;;;;6.43;0.90;;;9.50;99.90;;;;;;5047827;28;20546;-68
2023/12/11 01:13:37;;;;;;;5.70;0.47;;;9.60;99.90;;;;;;5046851;28;20505;-70
2023/12/11 01:16:05;;;;;;;9.00;0.67;;;9.60;99.90;;;;;;5045840;28;21074;-69
2023/12/11 01:18:34;;;;;;;6.43;0.60;;;9.60;99.90;;;;;;5044482;28;21081;-70
2023/12/11 01:21:02;;;;;;;6.00;0.73;;;9.50;99.90;;;;;;5046584;28;20459;-70
2023/12/11 01:23:30;;;;;;;6.63;1.10;;;9.50;99.90;;;;;;5045535;28;20514;-69
2023/12/11 01:25:59;;;;;;;5.50;0.30;;;9.50;99.90;;;;;;5045929;28;20452;-69
2023/12/11 01:28:28;;;;;;;6.23;0.43;;;9.50;99.90;;;;;;5046703;28;20457;-69
2023/12/11 01:30:56;;;;;;;5.60;0.50;;;9.60;99.90;;;;;;5045632;28;20451;-69
2023/12/11 01:33:24;;;;;;;6.23;0.70;;;9.60;99.90;;;;;;5046175;28;21023;-69
2023/12/11 01:35:52;;;;;;;5.60;0.67;;;9.50;99.90;;;;;;5047006;28;20463;-69
2023/12/11 01:38:20;;;;;;;5.97;0.60;;;9.50;99.90;;;;;;5045932;28;20965;-70
2023/12/11 01:40:48;;;;;;;6.23;0.57;;;9.50;99.90;;;;;;5046164;28;20448;-70
2023/12/11 01:43:19;;;;;;;5.73;0.50;;;9.50;99.90;;;;;;5046105;28;20946;-70
2023/12/11 01:45:53;;;;;;;6.23;0.43;;;9.60;99.90;;;;;;5045407;28;20456;-69
2023/12/11 01:48:21;;;;;;;5.67;0.40;;;9.60;99.90;;;;;;5045720;28;20467;-70
2023/12/11 01:50:50;;;;;;;5.80;0.50;;;9.60;99.90;;;;;;5046582;28;20795;-69
2023/12/11 01:53:18;;;;;;;5.90;0.50;;;9.60;99.90;;;;;;5045322;28;21055;-70
2023/12/11 01:55:48;;;;;;;5.97;0.60;;;9.60;99.90;;;;;;5045659;28;20451;-70
2023/12/11 01:58:18;;;;;;;5.90;0.60;;;9.70;99.90;;;;;;5045575;28;20467;-70
2023/12/11 02:00:47;;;;;;;6.17;0.60;;;9.70;99.90;;;;;;5049245;28;20494;-70
2023/12/11 02:03:15;;;;;;;6.50;0.80;;;9.70;99.90;;;;;;5046627;28;20475;-71
2023/12/11 02:05:44;;;;;;;7.53;0.63;;;9.70;99.90;;;;;;5044971;28;20481;-69
2023/12/11 02:08:13;;;;;;;6.60;0.60;;;9.70;99.90;;;;;;5046163;28;20882;-70
2023/12/11 02:10:41;;;;;;;7.40;0.87;;;9.60;99.90;;;;;;5047167;28;20445;-70
2023/12/11 02:13:09;;;;;;;5.67;0.50;;;9.50;99.90;;;;;;5046452;28;20477;-70
2023/12/11 02:15:42;;;;;;;6.60;0.70;;;9.50;99.90;;;;;;5049743;28;20555;-71
2023/12/11 02:18:11;;;;;;;6.23;0.60;;;9.40;99.90;;;;;;5046317;28;20450;-70
2023/12/11 02:20:41;;;;;;;6.10;0.50;;;9.40;99.90;;;;;;5046706;28;20455;-70
2023/12/11 02:23:14;;;;;;;5.47;0.50;;;9.40;99.90;;;;;;5046185;28;20480;-70
2023/12/11 02:25:45;;;;;;;6.20;0.60;;;9.40;99.90;;;;;;5046124;28;20628;-70
2023/12/11 02:28:14;;;;;;;6.47;0.60;;;9.40;99.90;;;;;;5046172;28;20947;-70
2023/12/11 02:30:51;;;;;;;6.57;0.70;;;9.40;99.90;;;;;;5043265;28;20454;-71
2023/12/11 02:33:19;;;;;;;5.77;0.60;;;9.50;99.90;;;;;;5039327;28;20497;-70
2023/12/11 02:35:47;;;;;;;5.60;0.60;;;9.50;99.90;;;;;;5045144;28;20488;-70
2023/12/11 02:38:15;;;;;;;5.47;0.40;;;9.50;99.90;;;;;;5044916;28;20964;-70
2023/12/11 02:40:43;;;;;;;5.60;0.43;;;9.50;99.90;;;;;;5045155;28;20501;-71
2023/12/11 02:43:12;;;;;;;7.93;0.80;;;9.50;99.90;;;;;;5044255;28;20829;-70
2023/12/11 02:45:43;;;;;;;5.90;0.70;;;9.50;99.90;;;;;;5044507;28;21006;-70
2023/12/11 02:48:11;;;;;;;5.83;0.63;;;9.60;99.90;;;;;;5045126;28;20843;-71
2023/12/11 02:50:39;;;;;;;5.87;0.63;;;9.50;99.90;;;;;;5045039;28;20835;-69
2023/12/11 02:53:08;;;;;;;6.00;0.60;;;9.50;99.90;;;;;;5041625;28;20491;-70
2023/12/11 02:55:36;;;;;;;7.93;0.60;;;9.50;99.90;;;;;;5044477;28;20878;-70
2023/12/11 02:58:04;;;;;;;5.80;0.60;;;9.40;99.90;;;;;;5044824;28;20461;-70
2023/12/11 03:00:33;;;;;;;7.40;0.50;;;9.40;99.90;;;;;;5045093;28;20936;-70
2023/12/11 03:03:02;;;;;;;5.67;0.60;;;9.50;99.90;;;;;;5043473;28;20529;-69
2023/12/11 03:05:30;;;;;;;6.37;0.57;;;9.50;99.90;;;;;;5045135;28;20447;-70
2023/12/11 03:07:59;;;;;;;6.17;0.80;;;9.50;99.90;;;;;;5038128;28;20458;-70
2023/12/11 03:10:27;;;;;;;6.10;0.60;;;9.50;99.90;;;;;;5046074;28;20451;-70
2023/12/11 03:12:55;;;;;;;6.00;0.57;;;9.60;99.90;;;;;;5045362;28;20458;-70
2023/12/11 03:15:23;;;;;;;6.60;0.60;;;9.50;99.90;;;;;;5045308;28;20493;-70
2023/12/11 03:17:51;;;;;;;6.20;0.53;;;9.50;99.90;;;;;;5046093;28;20474;-70
2023/12/11 03:20:20;;;;;;;5.90;0.57;;;9.50;99.90;;;;;;5045810;28;20956;-70
2023/12/11 03:22:48;;;;;;;5.83;0.40;;;9.50;99.90;;;;;;5043668;28;20923;-70
2023/12/11 03:25:16;;;;;;;5.77;0.60;;;9.30;99.90;;;;;;5044321;28;20538;-70
2023/12/11 03:27:44;;;;;;;6.13;0.70;;;9.30;99.90;;;;;;5044807;28;20454;-70
2023/12/11 03:30:13;;;;;;;6.30;0.60;;;9.30;99.90;;;;;;5045272;28;20471;-70
2023/12/11 03:32:41;;;;;;;5.90;0.60;;;9.20;99.90;;;;;;5044841;28;20803;-68
2023/12/11 03:35:09;;;;;;;6.00;0.60;;;9.20;99.90;;;;;;5044298;28;20482;-70
2023/12/11 03:37:39;;;;;;;6.97;0.60;;;9.20;99.90;;;;;;5036229;28;21031;-70
2023/12/11 03:40:08;;;;;;;5.90;0.67;;;9.20;99.90;;;;;;5041900;28;20450;-70
2023/12/11 03:42:36;;;;;;;6.30;0.60;;;9.20;99.90;;;;;;5044426;28;20977;-70
2023/12/11 03:45:05;;;;;;;5.90;0.50;;;9.20;99.90;;;;;;5044133;28;20465;-70
2023/12/11 03:47:33;;;;;;;5.60;0.40;;;9.20;99.90;;;;;;5044988;28;20449;-70
2023/12/11 03:50:02;;;;;;;6.00;0.90;;;9.30;99.90;;;;;;5045494;28;20858;-71
2023/12/11 03:52:30;;;;;;;6.40;0.50;;;9.20;99.90;;;;;;5044353;28;20445;-70
2023/12/11 03:54:59;;;;;;;7.47;0.77;;;9.20;99.90;;;;;;5042077;28;20602;-70
2023/12/11 03:57:27;;;;;;;5.70;0.50;;;9.10;99.90;;;;;;5045299;28;20455;-70
2023/12/11 03:59:56;;;;;;;6.60;0.57;;;9.00;99.90;;;;;;5044514;28;20507;-70
2023/12/11 04:02:24;;;;;;;6.10;0.70;;;9.00;99.90;;;;;;5043872;28;20442;-70
2023/12/11 04:04:52;;;;;;;5.83;0.60;;;9.00;99.90;;;;;;5043665;28;20471;-70
2023/12/11 04:07:20;;;;;;;6.03;0.53;;;9.00;99.90;;;;;;5044394;28;21415;-68
2023/12/11 04:09:48;;;;;;;6.80;0.60;;;9.00;99.90;;;;;;5044493;28;20502;-70
2023/12/11 04:12:18;;;;;;;5.67;0.50;;;9.10;99.90;;;;;;5040450;28;20450;-70
2023/12/11 04:14:46;;;;;;;6.20;0.53;;;9.00;99.90;;;;;;5047229;28;21013;-70
2023/12/11 04:17:15;;;;;;;5.90;0.60;;;8.90;99.90;;;;;;5047973;28;20453;-70
2023/12/11 04:19:43;;;;;;;6.40;0.60;;;8.70;99.90;;;;;;5047327;28;20495;-70
2023/12/11 04:22:11;;;;;;;6.00;0.50;;;8.70;99.90;;;;;;5047384;28;20446;-71
2023/12/11 04:24:39;;;;;;;6.40;0.70;;;8.60;99.90;;;;;;5047107;28;20492;-69
2023/12/11 04:27:07;;;;;;;5.80;0.50;;;8.60;99.90;;;;;;5048072;28;20457;-70
2023/12/11 04:29:36;;;;;;;5.53;0.30;;;8.60;99.90;;;;;;5046994;28;20481;-70
2023/12/11 04:32:05;;;;;;;5.70;0.40;;;8.60;99.90;;;;;;5048132;28;20453;-69
2023/12/11 04:34:34;;;;;;;5.70;0.50;;;8.60;99.90;;;;;;5047968;28;20469;-70
2023/12/11 04:37:02;;;;;;;6.00;0.40;;;8.60;99.90;;;;;;5048756;28;20488;-70
2023/12/11 04:39:30;;;;;;;5.70;0.40;;;8.70;99.90;;;;;;5048711;28;20460;-70
2023/12/11 04:41:58;;;;;;;6.40;0.70;;;8.60;99.90;;;;;;5056143;28;20446;-70
2023/12/11 04:44:26;;;;;;;6.13;0.60;;;8.60;99.90;;;;;;5044908;28;20539;-71
2023/12/11 04:46:55;;;;;;;6.13;0.60;;;8.70;99.90;;;;;;5047597;28;20442;-70
2023/12/11 04:49:23;;;;;;;7.70;0.40;;;8.70;99.90;;;;;;5047495;28;20555;-71
2023/12/11 04:51:52;;;;;;;7.07;0.50;;;8.70;99.90;;;;;;5047427;28;20807;-71
2023/12/11 04:54:20;;;;;;;6.10;0.60;;;8.80;99.90;;;;;;5046450;28;20557;-70
2023/12/11 04:56:48;;;;;;;5.80;0.40;;;8.80;99.90;;;;;;5047525;28;20480;-70
2023/12/11 04:59:16;;;;;;;5.80;0.40;;;8.80;99.90;;;;;;5047752;28;20460;-70
2023/12/11 05:01:44;;;;;;;5.60;0.33;;;8.70;99.90;;;;;;5046901;28;20503;-70
2023/12/11 05:04:13;;;;;;;6.53;0.50;;;8.80;99.90;;;;;;5047854;28;20460;-69
2023/12/11 05:06:43;;;;;;;6.00;0.40;;;8.80;99.90;;;;;;5047654;28;20444;-70
2023/12/11 05:09:11;;;;;;;7.30;0.50;;;8.80;99.90;;;;;;5046854;28;20449;-71
2023/12/11 05:11:39;;;;;;;6.30;0.40;;;8.80;99.90;;;;;;5046984;28;20864;-72
2023/12/11 05:14:07;;;;;;;6.73;0.50;;;8.80;99.90;;;;;;5047174;28;20830;-71
2023/12/11 05:16:35;;;;;;;5.67;0.40;;;8.70;99.90;;;;;;5046834;28;20526;-71
2023/12/11 05:19:05;;;;;;;5.53;0.30;;;8.70;99.90;;;;;;5042565;28;20617;-70
2023/12/11 05:21:35;;;;;;;5.90;0.50;;;8.80;99.90;;;;;;5038755;28;20556;-71
2023/12/11 05:24:03;;;;;;;5.70;0.50;;;8.70;99.90;;;;;;5048402;28;20537;-71
2023/12/11 05:26:31;;;;;;;6.03;0.70;;;8.70;99.90;;;;;;5047075;28;20529;-70
2023/12/11 05:29:00;;;;;;;5.90;0.70;;;8.70;99.90;;;;;;5046744;28;20875;-70
2023/12/11 05:31:28;;;;;;;5.97;0.70;;;8.80;99.90;;;;;;5047376;28;20437;-71
2023/12/11 05:33:56;;;;;;;6.00;0.70;;;8.80;99.90;;;;;;5046335;28;20461;-71
2023/12/11 05:36:24;;;;;;;6.90;0.73;;;8.80;99.90;;;;;;5045979;28;20485;-70
2023/12/11 05:38:54;;;;;;;5.87;0.43;;;8.80;99.90;;;;;;5047516;28;20472;-71
2023/12/11 05:41:22;;;;;;;6.00;0.50;;;8.80;99.90;;;;;;5047488;28;20438;-73
2023/12/11 05:43:50;;;;;;;6.70;0.50;;;8.70;99.90;;;;;;5045466;28;20456;-71
2023/12/11 05:46:18;;;;;;;5.67;0.50;;;8.70;99.90;;;;;;5047161;28;20461;-72
2023/12/11 05:48:46;;;;;;;5.87;0.50;;;8.70;99.90;;;;;;5047515;28;20444;-70
2023/12/11 05:51:15;;;;;;;6.27;0.70;;;8.60;99.90;;;;;;5046828;28;20445;-71
2023/12/11 05:53:43;;;;;;;6.73;0.60;;;8.50;99.90;;;;;;5043622;28;20469;-70
2023/12/11 05:56:13;;;;;;;6.40;0.70;;;8.40;99.90;;;;;;5043022;28;20476;-69
2023/12/11 05:58:41;;;;;;;7.23;0.70;;;8.40;99.90;;;;;;5046770;28;20469;-68
2023/12/11 06:01:09;;;;;;;5.60;0.50;;;8.50;99.90;;;;;;5041123;28;20560;-68
2023/12/11 06:03:37;;;;;;;7.00;0.87;;;8.40;99.90;;;;;;5045560;28;20514;-68
2023/12/11 06:06:14;;;;;;;6.30;0.80;;;8.50;99.90;;;;;;5044002;28;20461;-67
2023/12/11 06:08:42;;;;;;;6.30;0.80;;;8.40;99.90;;;;;;5038645;28;20478;-68
2023/12/11 06:11:10;;;;;;;7.40;0.60;;;8.40;99.90;;;;;;5049881;28;20470;-68
2023/12/11 06:13:40;;;;;;;6.00;0.40;;;8.30;99.90;;;;;;5043196;28;20842;-70
2023/12/11 06:16:09;;;;;;;7.50;0.63;;;8.30;99.90;;;;;;5045028;28;20496;-70
2023/12/11 06:18:37;;;;;;;7.70;1.33;;;8.40;99.90;;;;;;5036859;28;20975;-71
2023/12/11 06:21:05;;;;;;;6.03;0.60;;;8.40;99.90;;;;;;5041939;28;20445;-70
2023/12/11 06:23:33;;;;;;;5.90;0.57;;;8.50;99.90;;;;;;5044877;28;20461;-70
2023/12/11 06:26:01;;;;;;;7.40;0.70;;;8.60;99.90;;;;;;5045501;28;20449;-71
2023/12/11 06:28:29;;;;;;;6.10;0.73;;;8.60;99.90;;;;;;5038045;28;20457;-70
2023/12/11 06:30:59;;;;;;;6.00;0.60;;;8.60;99.90;;;;;;5045456;28;20441;-70
2023/12/11 06:33:27;;;;;;;5.77;0.60;;;8.70;99.90;;;;;;5045040;28;20570;-70
2023/12/11 06:35:55;;;;;;;5.80;0.67;;;8.70;99.90;;;;;;5046168;28;20506;-70
2023/12/11 06:38:23;;;;;;;5.70;0.63;;;8.70;99.90;;;;;;5043494;28;21160;-69
2023/12/11 06:40:51;;;;;;;6.57;0.80;;;8.70;99.90;;;;;;5045086;28;20957;-70
2023/12/11 06:43:19;;;;;;;6.60;0.90;;;8.80;99.90;;;;;;5044086;28;20527;-71
2023/12/11 06:45:47;;;;;;;6.40;0.70;;;8.80;99.90;;;;;;5032180;28;20483;-69
2023/12/11 06:48:17;;;;;;;5.83;0.63;;;8.80;99.90;;;;;;5040649;28;20469;-70
2023/12/11 06:50:45;;;;;;;5.90;0.67;;;8.90;99.90;;;;;;5043790;28;20493;-69
2023/12/11 06:53:13;;;;;;;5.70;0.70;;;8.90;99.90;;;;;;5045276;28;20507;-69
2023/12/11 06:55:41;;;;;;;6.13;0.57;;;8.90;99.90;;;;;;5044842;28;20763;-69
2023/12/11 06:58:09;;;;;;;6.80;0.60;;;8.90;99.90;;;;;;5044996;28;21222;-69
2023/12/11 07:00:38;;;;;;;5.80;0.67;;;8.90;99.90;;;;;;5045160;28;20825;-69
2023/12/11 07:03:06;;;;;;;5.67;0.60;;;8.90;99.90;;;;;;5044699;28;20471;-70
2023/12/11 07:05:36;;;;;;;6.87;0.67;;;8.90;99.90;;;;;;5044409;28;20483;-70
2023/12/11 07:08:04;;;;;;;7.20;1.10;;;8.90;99.90;;;;;;5046106;28;20677;-71
2023/12/11 07:10:32;;;;;;;6.43;0.80;;;8.90;99.90;;;;;;5046158;28;20453;-68
2023/12/11 07:13:05;;;;;;;8.40;1.13;;;9.00;99.90;;;;;;5045509;28;20470;-68
2023/12/11 07:15:33;;;;;;;6.37;0.60;;;9.00;99.90;;;;;;5044935;28;20446;-68
2023/12/11 07:18:01;;;;;;;6.83;0.60;;;9.10;99.90;;;;;;5045183;28;20484;-68
2023/12/11 07:20:33;;;;;;;6.80;0.67;;;9.10;99.90;;;;;;5045312;28;20907;-68
2023/12/11 07:23:02;;;;;;;7.90;0.90;;;9.10;99.90;;;;;;5044872;28;20529;-72
2023/12/11 07:25:30;;;;;;;6.00;0.70;;;9.10;99.90;;;;;;5044703;28;20454;-69
2023/12/11 07:27:58;;;;;;;6.70;1.17;;;9.10;99.90;;;;;;5045491;28;20799;-69
2023/12/11 07:30:27;;;;;;;9.03;0.90;;;9.00;99.90;;;;;;5045584;28;21006;-69
2023/12/11 07:32:55;;;;;;;5.87;0.80;;;9.00;99.90;;;;;;5044786;28;21192;-69
2023/12/11 07:35:24;;;;;;;6.27;0.60;;;9.00;99.90;;;;;;5044938;28;20483;-69
2023/12/11 07:37:52;;;;;;;6.30;0.90;;;9.10;99.90;;;;;;5045045;28;20579;-69
2023/12/11 07:40:22;;;;;;;6.60;0.50;;;9.10;99.90;;;;;;5045175;28;20947;-69
2023/12/11 07:42:51;;;;;;;6.73;1.00;;;9.10;99.90;;;;;;5044667;28;20454;-70
2023/12/11 07:45:20;;;;;;;6.60;0.80;;;9.10;99.90;;;;;;5044368;28;21022;-70
2023/12/11 07:47:48;;;;;;;6.77;0.70;;;9.00;99.90;;;;;;5060762;28;20500;-69
2023/12/11 07:50:16;;;;;;;6.97;0.90;;;9.00;99.90;;;;;;5052678;28;20457;-71
2023/12/11 07:52:44;;;;;;;6.40;0.80;;;9.10;99.90;;;;;;5049276;28;20538;-71
2023/12/11 07:55:12;;;;;;;5.60;0.60;;;9.10;99.90;;;;;;5048920;28;21009;-70
2023/12/11 07:57:42;;;;;;;7.63;0.77;;;9.20;99.90;;;;;;5049345;28;21071;-70
2023/12/11 08:00:12;;;;;;;6.47;0.70;;;9.20;99.90;;;;;;5049873;28;20443;-71
2023/12/11 08:02:40;;;;;;;8.00;2.30;;;9.30;99.90;;;;;;5048090;28;20529;-71
2023/12/11 08:05:09;;;;;;;5.87;0.53;;;9.30;99.90;;;;;;5047784;28;20509;-71
2023/12/11 08:07:38;;;;;;;6.40;0.63;;;9.20;99.90;;;;;;5048581;28;20533;-71
2023/12/11 08:10:07;;;;;;;6.47;0.70;;;9.20;99.90;;;;;;5048679;28;20471;-71
2023/12/11 08:12:36;;;;;;;6.50;0.90;;;9.10;99.90;;;;;;5056348;28;20443;-70
2023/12/11 08:15:06;;;;;;;8.40;0.70;;;9.20;99.90;;;;;;5047829;28;20471;-71
2023/12/11 08:17:34;;;;;;;7.63;0.80;;;9.30;99.90;;;;;;5048589;28;20493;-71
2023/12/11 08:20:02;;;;;;;6.93;0.90;;;9.50;99.90;;;;;;5048327;28;21153;-71
2023/12/11 08:22:30;;;;;;;5.80;0.53;;;9.70;99.90;;;;;;5047726;28;20890;-70
2023/12/11 08:24:58;;;;;;;6.80;0.80;;;9.70;99.90;;;;;;5047733;28;20471;-70
2023/12/11 08:27:27;;;;;;;5.90;0.63;;;9.80;99.90;;;;;;5048221;28;20494;-69
2023/12/11 08:29:55;;;;;;;6.00;0.70;;;9.80;99.90;;;;;;5048231;28;20460;-70
2023/12/11 08:32:24;;;;;;;6.00;0.60;;;9.90;99.90;;;;;;5048455;28;20457;-69
2023/12/11 08:34:52;;;;;;;7.13;0.80;;;10.00;99.90;;;;;;5047669;28;20993;-70
2023/12/11 08:37:21;;;;;;;6.53;0.87;;;10.10;99.90;;;;;;5048228;28;20529;-70
2023/12/11 08:39:49;;;;;;;6.13;0.60;;;10.20;99.90;;;;;;5048635;28;21309;-70
2023/12/11 08:42:17;;;;;;;6.07;0.63;;;10.30;99.90;;;;;;5048065;28;20964;-71
2023/12/11 08:44:45;;;;;;;7.20;0.63;;;10.30;99.90;;;;;;5047668;28;20468;-69
2023/12/11 08:47:13;;;;;;;6.10;0.70;;;10.40;99.90;;;;;;5048196;28;20483;-69
2023/12/11 08:49:43;;;;;;;6.93;0.60;;;10.40;99.90;;;;;;5039728;28;20455;-69
2023/12/11 08:52:11;;;;;;;6.27;0.70;;;10.50;99.90;;;;;;5047712;28;20510;-70
2023/12/11 08:54:39;;;;;;;6.77;0.50;;;10.40;99.90;;;;;;5047059;28;20524;-67
2023/12/11 08:57:08;;;;;;;8.10;0.97;;;10.40;99.90;;;;;;5047454;28;20957;-70
2023/12/11 08:59:37;;;;;;;5.97;0.60;;;10.50;99.90;;;;;;5047920;28;20467;-69
2023/12/11 09:02:06;;;;;;;5.50;0.60;;;10.60;99.90;;;;;;5048156;28;20466;-70
2023/12/11 09:04:35;;;;;;;6.07;0.67;;;10.70;99.90;;;;;;5047715;28;20895;-70
2023/12/11 09:07:07;;;;;;;6.10;0.70;;;10.80;99.90;;;;;;5047634;28;20448;-70
2023/12/11 09:09:35;;;;;;;6.00;0.80;;;10.80;99.90;;;;;;5046975;28;20455;-70
2023/12/11 09:12:03;;;;;;;5.73;0.73;;;10.90;99.90;;;;;;5046765;28;20536;-70
2023/12/11 09:14:33;;;;;;;8.83;0.90;;;11.00;99.90;;;;;;5046143;28;20881;-69
2023/12/11 09:17:01;;;;;;;5.97;0.80;;;11.20;99.90;;;;;;5047067;28;20529;-71
2023/12/11 09:19:29;;;;;;;6.97;0.80;;;11.30;99.90;;;;;;5046149;28;21064;-70
2023/12/11 09:22:16;;;;;;;5.90;0.70;;;11.40;99.90;;;;;;5046665;28;20881;-70
2023/12/11 09:24:44;;;;;;;6.33;0.80;;;11.40;99.90;;;;;;5046012;28;20503;-71
2023/12/11 09:27:13;;;;;;;7.70;0.90;;;11.50;99.90;;;;;;5046732;28;20899;-70
2023/12/11 09:29:41;;;;;;;8.77;0.70;;;11.50;99.90;;;;;;5046128;28;20453;-70
2023/12/11 09:32:09;;;;;;;7.10;0.73;;;11.50;99.90;;;;;;5045920;28;20449;-71
2023/12/11 09:34:37;;;;;;;7.00;0.80;;;11.50;99.90;;;;;;5044959;28;21000;-70
2023/12/11 09:37:05;;;;;;;5.93;1.17;;;11.60;99.90;;;;;;5045343;28;20485;-71
2023/12/11 09:39:35;;;;;;;6.83;0.80;;;11.50;99.90;;;;;;5046581;28;20496;-70
2023/12/11 09:42:04;;;;;;;7.80;0.77;;;11.50;99.90;;;;;;5045946;28;20451;-69
2023/12/11 09:44:33;;;;;;;6.37;0.93;;;11.50;99.90;;;;;;5045169;28;20845;-70
2023/12/11 09:47:06;;;;;;;6.20;0.70;;;11.40;99.90;;;;;;5046245;28;20443;-70
2023/12/11 09:49:36;;;;;;;6.53;0.60;;;11.30;99.90;;;;;;5046222;28;20442;-71
2023/12/11 09:52:04;;;;;;;6.00;0.80;;;11.50;99.90;;;;;;5045671;28;20479;-71
2023/12/11 09:54:33;;;;;;;6.53;0.70;;;11.60;99.90;;;;;;5045181;28;21443;-69
2023/12/11 09:57:02;;;;;;;6.67;0.73;;;11.70;99.90;;;;;;5046017;28;20511;-71
2023/12/11 09:59:31;;;;;;;7.10;0.73;;;11.80;99.90;;;;;;5045479;28;21126;-69
2023/12/11 10:01:59;;;;;;;8.27;0.97;;;12.00;99.90;;;;;;5045625;28;20529;-71
2023/12/11 10:04:27;;;;;;;5.70;0.70;;;12.20;99.90;;;;;;5045237;28;21023;-69
2023/12/11 10:06:55;;;;;;;9.30;0.90;;;12.30;99.90;;;;;;5046341;28;20467;-71
2023/12/11 10:09:33;;;;;;;7.40;0.80;;;12.40;99.90;;;;;;5045521;28;20451;-71
2023/12/11 10:12:04;;;;;;;6.63;0.80;;;12.50;99.90;;;;;;5046019;28;20461;-70
2023/12/11 10:14:32;;;;;;;9.10;0.90;;;12.50;99.90;;;;;;5045235;28;21353;-71
2023/12/11 10:17:16;;;;;;;6.13;0.60;;;12.50;99.90;;;;;;5046655;28;20461;-72
2023/12/11 10:19:44;;;;;;;7.53;0.80;;;12.50;99.90;;;;;;5038627;28;20500;-72
2023/12/11 10:22:26;;;;;;;7.33;1.17;;;12.50;99.90;;;;;;5046364;28;20454;-71
2023/12/11 10:24:54;;;;;;;8.60;0.73;;;12.70;99.90;;;;;;5046507;28;20474;-69
2023/12/11 10:27:24;;;;;;;8.03;1.27;;;13.20;99.90;;;;;;5045815;28;20450;-69
2023/12/11 10:30:08;;;;;;;11.00;0.90;;;13.90;99.90;;;;;;5045640;28;20440;-69
2023/12/11 10:32:36;;;;;;;6.50;0.60;;;13.90;99.90;;;;;;5044778;28;21012;-72
2023/12/11 10:35:06;;;;;;;6.73;0.90;;;13.90;99.90;;;;;;5044594;28;20567;-69
2023/12/11 10:37:35;;;;;;;7.13;0.90;;;13.70;99.90;;;;;;5044909;28;20973;-71
2023/12/11 10:40:04;;;;;;;8.30;0.73;;;13.50;99.90;;;;;;5045039;28;20498;-69
2023/12/11 10:42:34;;;;;;;6.27;0.80;;;13.30;99.90;;;;;;5044614;28;20464;-68
2023/12/11 10:45:02;;;;;;;8.10;0.87;;;13.20;99.90;;;;;;5044304;28;20503;-68
2023/12/11 10:47:31;;;;;;;6.10;0.80;;;13.10;99.90;;;;;;5045208;28;20448;-70
2023/12/11 10:50:02;;;;;;;6.60;0.90;;;13.10;99.90;;;;;;5044945;28;20453;-69
2023/12/11 10:52:31;;;;;;;6.20;0.90;;;13.10;99.90;;;;;;5044532;28;20441;-67
2023/12/11 10:55:00;;;;;;;7.13;0.80;;;13.30;99.90;;;;;;5043138;28;20474;-69
2023/12/11 10:57:31;;;;;;;6.53;0.70;;;13.30;99.90;;;;;;5045305;28;20523;-69
2023/12/11 11:00:03;;;;;;;8.13;1.20;;;13.30;99.90;;;;;;5044944;28;21046;-69
2023/12/11 11:02:32;;;;;;;7.80;1.20;;;13.30;99.90;;;;;;5044784;28;20445;-69
2023/12/11 11:05:00;;;;;;;8.27;1.00;;;13.20;99.90;;;;;;5044433;28;20463;-70
2023/12/11 11:07:34;;;;;;;9.97;0.90;;;13.20;99.90;;;;;;5045383;28;20455;-69
2023/12/11 11:10:09;;;;;;;7.90;1.00;;;13.10;99.90;;;;;;5045698;28;20450;-70
2023/12/11 11:12:43;;;;;;;8.47;1.30;;;13.10;99.90;;;;;;5044957;28;20446;-69
2023/12/11 11:15:20;;;;;;;8.13;1.20;;;13.20;99.90;;;;;;5044002;28;20461;-69
2023/12/11 11:17:59;;;;;;;7.67;1.20;;;13.20;99.90;;;;;;5045107;28;20435;-69
2023/12/11 11:20:28;;;;;;;8.70;1.10;;;13.20;99.90;;;;;;5044604;28;20494;-70
2023/12/11 11:23:31;;;;;;;9.47;1.80;;;13.10;99.90;;;;;;5047970;28;20855;-69
2023/12/11 11:25:59;;;;;;;7.67;1.23;;;13.00;99.90;;;;;;5042378;28;20582;-68
2023/12/11 11:28:40;;;;;;;7.53;1.23;;;13.00;99.90;;;;;;5049855;28;20476;-72
2023/12/11 11:31:11;;;;;;;8.50;1.30;;;13.20;99.90;;;;;;5048877;28;20446;-71
2023/12/11 11:33:56;;;;;;;8.53;1.00;;;13.30;99.90;;;;;;5048272;28;20474;-70
2023/12/11 11:36:44;;;;;;;7.30;0.90;;;13.40;99.90;;;;;;5048497;28;20471;-69
2023/12/11 11:39:12;;;;;;;9.87;1.10;;;13.30;99.90;;;;;;5049055;28;20522;-72
2023/12/11 11:41:42;;;;;;;7.80;1.47;;;13.20;99.90;;;;;;5048382;28;20459;-69
2023/12/11 11:44:11;;;;;;;9.20;1.10;;;13.20;99.90;;;;;;5048319;28;20621;-70
2023/12/11 11:46:51;;;;;;;9.10;1.47;;;13.00;99.90;;;;;;5048111;28;20450;-71
2023/12/11 11:49:31;;;;;;;9.40;1.20;;;12.90;99.90;;;;;;5048536;28;20945;-71
2023/12/11 11:52:00;;;;;;;11.63;1.33;;;13.10;99.90;;;;;;5048538;28;20446;-71
2023/12/11 11:54:30;;;;;;;8.93;1.50;;;13.20;99.90;;;;;;5047605;28;20506;-71
2023/12/11 11:56:58;;;;;;;8.93;1.47;;;13.20;99.90;;;;;;5048530;28;20511;-71
2023/12/11 11:59:26;;;;;;;9.00;1.00;;;13.20;99.90;;;;;;5047110;28;20490;-73
2023/12/11 12:01:56;;;;;;;10.33;1.50;;;13.20;99.90;;;;;;5047882;28;20454;-71
2023/12/11 12:04:26;;;;;;;7.50;0.90;;;13.20;99.90;;;;;;5046930;28;20473;-71
2023/12/11 12:06:56;;;;;;;13.90;1.70;;;13.10;99.90;;;;;;5048524;28;20462;-71
2023/12/11 12:09:25;;;;;;;9.07;1.07;;;13.10;99.90;;;;;;5048528;28;20440;-70
2023/12/11 12:11:53;;;;;;;8.00;1.20;;;13.10;99.90;;;;;;5048134;28;20478;-73
2023/12/11 12:14:22;;;;;;;8.33;1.17;;;13.20;99.90;;;;;;5047165;28;20839;-70
2023/12/11 12:16:50;;;;;;;10.40;2.30;;;13.10;99.90;;;;;;5048219;28;20546;-70
2023/12/11 12:19:30;;;;;;;10.97;1.70;;;13.10;99.90;;;;;;5047677;28;20576;-71
2023/12/11 12:21:58;;;;;;;9.93;1.90;;;13.10;99.90;;;;;;5047064;28;20445;-70
2023/12/11 12:24:27;;;;;;;8.60;1.30;;;13.00;99.90;;;;;;5046491;28;20498;-71
2023/12/11 12:26:58;;;;;;;8.43;1.43;;;13.00;99.90;;;;;;5047765;28;20439;-70
2023/12/11 12:29:29;;;;;;;10.43;1.50;;;13.10;99.90;;;;;;5047178;28;20978;-71
2023/12/11 12:31:58;;;;;;;10.03;2.10;;;13.20;99.90;;;;;;5045608;28;20535;-69
2023/12/11 12:34:30;;;;;;;9.40;1.30;;;13.30;99.90;;;;;;5047698;28;20901;-70
2023/12/11 12:37:00;;;;;;;9.50;1.77;;;13.40;99.90;;;;;;5047558;28;20438;-68
2023/12/11 12:39:29;;;;;;;13.70;2.33;;;13.50;99.90;;;;;;5046299;28;21341;-70
2023/12/11 12:41:57;;;;;;;10.87;1.63;;;13.50;99.90;;;;;;5054574;28;20462;-70
2023/12/11 12:44:25;;;;;;;10.50;1.47;;;13.30;99.90;;;;;;5044632;28;20532;-69
2023/12/11 12:46:53;;;;;;;7.40;0.90;;;13.40;99.90;;;;;;5046948;28;20461;-69
2023/12/11 12:49:21;;;;;;;7.83;1.23;;;13.50;99.90;;;;;;5046800;28;20520;-70
2023/12/11 12:51:54;;;;;;;9.10;1.33;;;13.60;99.90;;;;;;5046482;28;20930;-69
2023/12/11 12:54:22;;;;;;;8.53;1.10;;;13.70;99.90;;;;;;5046040;28;20478;-70
2023/12/11 12:56:55;;;;;;;11.77;1.70;;;13.80;99.90;;;;;;5046866;28;20447;-70
2023/12/11 12:59:24;;;;;;;9.73;1.60;;;13.80;99.90;;;;;;5046486;28;20486;-70
2023/12/11 13:01:52;;;;;;;11.30;1.60;;;13.70;99.90;;;;;;5046166;28;20455;-69
2023/12/11 13:04:21;;;;;;;12.40;1.60;;;13.80;99.90;;;;;;5046297;28;20992;-69